sensor_id;sensor_type;location;lat;lon;timestamp;P1;durP1;ratioP1;P2;durP2;ratioP2
20397;SDS011;10358;49.590;11.030;2022-10-10T00:00:47;5.00;;;2.30;;
20397;SDS011;10358;49.590;11.030;2022-10-10T00:03:14;7.17;;;2.50;;
20397;SDS011;10358;49.590;11.030;2022-10-10T00:05:40;11.27;;;2.50;;
20397;SDS011;10358;49.590;11.030;2022-10-10T00:08:06;4.00;;;2.30;;
20397;SDS011;10358;49.590;11.030;2022-10-10T00:10:32;8.93;;;2.30;;
20397;SDS011;10358;49.590;11.030;2022-10-10T00:12:58;7.53;;;2.50;;
20397;SDS011;10358;49.590;11.030;2022-10-10T00:15:24;9.57;;;2.40;;
20397;SDS011;10358;49.590;11.030;2022-10-10T00:17:50;10.53;;;2.90;;
20397;SDS011;10358;49.590;11.030;2022-10-10T00:20:16;10.23;;;2.60;;
20397;SDS011;10358;49.590;11.030;2022-10-10T00:22:43;4.87;;;2.10;;
20397;SDS011;10358;49.590;11.030;2022-10-10T00:25:09;9.83;;;2.87;;
20397;SDS011;10358;49.590;11.030;2022-10-10T00:27:35;5.03;;;2.20;;
20397;SDS011;10358;49.590;11.030;2022-10-10T00:30:01;7.67;;;2.20;;
20397;SDS011;10358;49.590;11.030;2022-10-10T00:32:28;7.33;;;2.50;;
20397;SDS011;10358;49.590;11.030;2022-10-10T00:34:54;6.67;;;2.13;;
20397;SDS011;10358;49.590;11.030;2022-10-10T00:37:19;4.10;;;2.40;;
20397;SDS011;10358;49.590;11.030;2022-10-10T00:39:45;7.73;;;2.30;;
20397;SDS011;10358;49.590;11.030;2022-10-10T00:42:11;5.13;;;2.30;;
20397;SDS011;10358;49.590;11.030;2022-10-10T00:44:41;7.93;;;2.00;;
20397;SDS011;10358;49.590;11.030;2022-10-10T00:47:08;5.03;;;2.10;;
20397;SDS011;10358;49.590;11.030;2022-10-10T00:49:35;4.80;;;2.20;;
20397;SDS011;10358;49.590;11.030;2022-10-10T00:52:04;4.70;;;2.00;;
20397;SDS011;10358;49.590;11.030;2022-10-10T00:54:31;6.17;;;2.37;;
20397;SDS011;10358;49.590;11.030;2022-10-10T00:56:59;7.00;;;2.43;;
20397;SDS011;10358;49.590;11.030;2022-10-10T00:59:29;9.67;;;2.60;;
20397;SDS011;10358;49.590;11.030;2022-10-10T01:01:57;4.87;;;2.03;;
20397;SDS011;10358;49.590;11.030;2022-10-10T01:04:56;4.53;;;2.17;;
20397;SDS011;10358;49.590;11.030;2022-10-10T01:07:20;3.80;;;2.00;;
20397;SDS011;10358;49.590;11.030;2022-10-10T01:09:48;3.60;;;2.00;;
20397;SDS011;10358;49.590;11.030;2022-10-10T01:12:21;6.17;;;2.00;;
20397;SDS011;10358;49.590;11.030;2022-10-10T01:15:10;5.63;;;2.20;;
20397;SDS011;10358;49.590;11.030;2022-10-10T01:29:28;4.57;;;2.00;;
20397;SDS011;10358;49.590;11.030;2022-10-10T01:37:46;6.67;;;2.10;;
20397;SDS011;10358;49.590;11.030;2022-10-10T01:40:38;5.50;;;2.23;;
20397;SDS011;10358;49.590;11.030;2022-10-10T01:43:13;6.70;;;2.10;;
20397;SDS011;10358;49.590;11.030;2022-10-10T01:45:56;4.43;;;2.13;;
20397;SDS011;10358;49.590;11.030;2022-10-10T01:48:23;5.23;;;2.40;;
20397;SDS011;10358;49.590;11.030;2022-10-10T01:53:21;8.00;;;2.20;;
20397;SDS011;10358;49.590;11.030;2022-10-10T01:55:53;5.47;;;2.10;;
20397;SDS011;10358;49.590;11.030;2022-10-10T02:01:28;7.97;;;2.20;;
20397;SDS011;10358;49.590;11.030;2022-10-10T02:04:31;6.20;;;2.20;;
20397;SDS011;10358;49.590;11.030;2022-10-10T02:07:09;3.80;;;1.93;;
20397;SDS011;10358;49.590;11.030;2022-10-10T02:09:41;5.80;;;2.00;;
20397;SDS011;10358;49.590;11.030;2022-10-10T02:12:08;5.30;;;2.13;;
20397;SDS011;10358;49.590;11.030;2022-10-10T02:14:37;5.77;;;2.07;;
20397;SDS011;10358;49.590;11.030;2022-10-10T02:17:07;5.37;;;1.97;;
20397;SDS011;10358;49.590;11.030;2022-10-10T02:19:35;6.27;;;1.97;;
20397;SDS011;10358;49.590;11.030;2022-10-10T02:22:02;5.53;;;2.00;;
20397;SDS011;10358;49.590;11.030;2022-10-10T02:24:29;7.13;;;1.90;;
20397;SDS011;10358;49.590;11.030;2022-10-10T02:26:58;4.50;;;1.97;;
20397;SDS011;10358;49.590;11.030;2022-10-10T02:29:42;4.87;;;1.80;;
20397;SDS011;10358;49.590;11.030;2022-10-10T02:32:11;7.33;;;2.00;;
20397;SDS011;10358;49.590;11.030;2022-10-10T02:34:44;10.73;;;2.30;;
20397;SDS011;10358;49.590;11.030;2022-10-10T02:37:13;4.07;;;2.10;;
20397;SDS011;10358;49.590;11.030;2022-10-10T02:39:42;7.30;;;1.93;;
20397;SDS011;10358;49.590;11.030;2022-10-10T02:42:14;4.03;;;2.07;;
20397;SDS011;10358;49.590;11.030;2022-10-10T02:44:41;5.47;;;1.93;;
20397;SDS011;10358;49.590;11.030;2022-10-10T02:47:08;3.67;;;2.00;;
20397;SDS011;10358;49.590;11.030;2022-10-10T02:49:34;3.83;;;2.10;;
20397;SDS011;10358;49.590;11.030;2022-10-10T02:51:59;4.43;;;2.20;;
20397;SDS011;10358;49.590;11.030;2022-10-10T02:54:25;7.10;;;1.80;;
20397;SDS011;10358;49.590;11.030;2022-10-10T02:56:52;4.60;;;2.10;;
20397;SDS011;10358;49.590;11.030;2022-10-10T02:59:18;4.30;;;2.10;;
20397;SDS011;10358;49.590;11.030;2022-10-10T03:01:44;8.03;;;2.53;;
20397;SDS011;10358;49.590;11.030;2022-10-10T03:04:09;7.73;;;2.83;;
20397;SDS011;10358;49.590;11.030;2022-10-10T03:06:35;8.97;;;3.07;;
20397;SDS011;10358;49.590;11.030;2022-10-10T03:09:01;4.27;;;2.50;;
20397;SDS011;10358;49.590;11.030;2022-10-10T03:11:28;5.70;;;2.70;;
20397;SDS011;10358;49.590;11.030;2022-10-10T03:13:53;6.03;;;2.53;;
20397;SDS011;10358;49.590;11.030;2022-10-10T03:16:19;7.20;;;2.30;;
20397;SDS011;10358;49.590;11.030;2022-10-10T03:18:45;3.73;;;2.20;;
20397;SDS011;10358;49.590;11.030;2022-10-10T03:21:10;7.30;;;2.30;;
20397;SDS011;10358;49.590;11.030;2022-10-10T03:23:36;8.37;;;2.77;;
20397;SDS011;10358;49.590;11.030;2022-10-10T03:26:02;5.93;;;2.80;;
20397;SDS011;10358;49.590;11.030;2022-10-10T03:28:28;7.87;;;2.30;;
20397;SDS011;10358;49.590;11.030;2022-10-10T03:30:53;7.63;;;2.40;;
20397;SDS011;10358;49.590;11.030;2022-10-10T03:33:19;9.67;;;2.20;;
20397;SDS011;10358;49.590;11.030;2022-10-10T03:35:45;5.07;;;2.40;;
20397;SDS011;10358;49.590;11.030;2022-10-10T03:38:11;7.77;;;2.20;;
20397;SDS011;10358;49.590;11.030;2022-10-10T03:40:40;4.07;;;2.07;;
20397;SDS011;10358;49.590;11.030;2022-10-10T03:43:08;6.70;;;2.63;;
20397;SDS011;10358;49.590;11.030;2022-10-10T03:45:35;6.83;;;2.23;;
20397;SDS011;10358;49.590;11.030;2022-10-10T03:48:01;7.37;;;2.30;;
20397;SDS011;10358;49.590;11.030;2022-10-10T03:50:27;3.23;;;1.90;;
20397;SDS011;10358;49.590;11.030;2022-10-10T03:52:53;5.43;;;2.20;;
20397;SDS011;10358;49.590;11.030;2022-10-10T03:55:18;6.17;;;2.00;;
20397;SDS011;10358;49.590;11.030;2022-10-10T03:57:44;5.63;;;1.83;;
20397;SDS011;10358;49.590;11.030;2022-10-10T04:00:09;4.83;;;2.10;;
20397;SDS011;10358;49.590;11.030;2022-10-10T04:02:36;5.97;;;2.30;;
20397;SDS011;10358;49.590;11.030;2022-10-10T04:05:01;5.73;;;2.00;;
20397;SDS011;10358;49.590;11.030;2022-10-10T04:07:28;7.40;;;2.20;;
20397;SDS011;10358;49.590;11.030;2022-10-10T04:09:53;5.50;;;2.30;;
20397;SDS011;10358;49.590;11.030;2022-10-10T04:12:19;9.07;;;2.20;;
20397;SDS011;10358;49.590;11.030;2022-10-10T04:14:45;6.90;;;3.13;;
20397;SDS011;10358;49.590;11.030;2022-10-10T04:17:10;17.97;;;7.27;;
20397;SDS011;10358;49.590;11.030;2022-10-10T04:19:36;12.40;;;4.03;;
20397;SDS011;10358;49.590;11.030;2022-10-10T04:22:01;8.47;;;2.70;;
20397;SDS011;10358;49.590;11.030;2022-10-10T04:24:27;10.50;;;2.17;;
20397;SDS011;10358;49.590;11.030;2022-10-10T04:26:53;7.00;;;2.30;;
20397;SDS011;10358;49.590;11.030;2022-10-10T04:29:18;5.53;;;1.77;;
20397;SDS011;10358;49.590;11.030;2022-10-10T04:31:44;4.13;;;2.00;;
20397;SDS011;10358;49.590;11.030;2022-10-10T04:34:09;6.17;;;2.07;;
20397;SDS011;10358;49.590;11.030;2022-10-10T04:36:35;5.13;;;2.07;;
20397;SDS011;10358;49.590;11.030;2022-10-10T04:39:01;6.77;;;1.70;;
20397;SDS011;10358;49.590;11.030;2022-10-10T04:41:26;7.07;;;2.03;;
20397;SDS011;10358;49.590;11.030;2022-10-10T04:43:52;3.93;;;2.20;;
20397;SDS011;10358;49.590;11.030;2022-10-10T04:46:18;4.00;;;2.07;;
20397;SDS011;10358;49.590;11.030;2022-10-10T04:48:43;6.23;;;2.30;;
20397;SDS011;10358;49.590;11.030;2022-10-10T04:51:09;10.23;;;2.30;;
20397;SDS011;10358;49.590;11.030;2022-10-10T04:53:34;5.00;;;2.20;;
20397;SDS011;10358;49.590;11.030;2022-10-10T04:56:00;5.40;;;2.07;;
20397;SDS011;10358;49.590;11.030;2022-10-10T04:58:26;4.70;;;1.93;;
20397;SDS011;10358;49.590;11.030;2022-10-10T05:00:52;6.53;;;3.00;;
20397;SDS011;10358;49.590;11.030;2022-10-10T05:03:19;9.70;;;3.90;;
20397;SDS011;10358;49.590;11.030;2022-10-10T05:05:45;7.17;;;3.50;;
20397;SDS011;10358;49.590;11.030;2022-10-10T05:08:11;11.93;;;3.53;;
20397;SDS011;10358;49.590;11.030;2022-10-10T05:10:37;15.63;;;4.73;;
20397;SDS011;10358;49.590;11.030;2022-10-10T05:13:04;6.30;;;2.80;;
20397;SDS011;10358;49.590;11.030;2022-10-10T05:15:39;11.10;;;2.37;;
20397;SDS011;10358;49.590;11.030;2022-10-10T05:18:05;8.20;;;2.40;;
20397;SDS011;10358;49.590;11.030;2022-10-10T05:20:32;8.17;;;2.33;;
20397;SDS011;10358;49.590;11.030;2022-10-10T05:22:58;6.27;;;1.83;;
20397;SDS011;10358;49.590;11.030;2022-10-10T05:25:24;8.27;;;2.10;;
20397;SDS011;10358;49.590;11.030;2022-10-10T05:27:50;7.00;;;2.90;;
20397;SDS011;10358;49.590;11.030;2022-10-10T05:30:16;6.03;;;2.20;;
20397;SDS011;10358;49.590;11.030;2022-10-10T05:32:42;6.53;;;2.20;;
20397;SDS011;10358;49.590;11.030;2022-10-10T05:35:07;4.83;;;2.00;;
20397;SDS011;10358;49.590;11.030;2022-10-10T05:37:33;6.13;;;2.10;;
20397;SDS011;10358;49.590;11.030;2022-10-10T05:40:00;5.37;;;2.30;;
20397;SDS011;10358;49.590;11.030;2022-10-10T05:42:26;15.83;;;4.57;;
20397;SDS011;10358;49.590;11.030;2022-10-10T05:44:51;6.17;;;2.73;;
20397;SDS011;10358;49.590;11.030;2022-10-10T05:47:17;7.63;;;2.40;;
20397;SDS011;10358;49.590;11.030;2022-10-10T05:49:42;11.30;;;4.03;;
20397;SDS011;10358;49.590;11.030;2022-10-10T05:52:08;10.30;;;5.00;;
20397;SDS011;10358;49.590;11.030;2022-10-10T05:54:34;7.83;;;3.30;;
20397;SDS011;10358;49.590;11.030;2022-10-10T05:56:59;4.50;;;2.67;;
20397;SDS011;10358;49.590;11.030;2022-10-10T05:59:27;10.90;;;3.03;;
20397;SDS011;10358;49.590;11.030;2022-10-10T06:01:53;6.90;;;2.10;;
20397;SDS011;10358;49.590;11.030;2022-10-10T06:04:19;6.37;;;2.60;;
20397;SDS011;10358;49.590;11.030;2022-10-10T06:06:45;5.37;;;2.20;;
20397;SDS011;10358;49.590;11.030;2022-10-10T06:09:11;5.10;;;2.30;;
20397;SDS011;10358;49.590;11.030;2022-10-10T06:11:37;11.70;;;2.27;;
20397;SDS011;10358;49.590;11.030;2022-10-10T06:14:02;8.97;;;2.30;;
20397;SDS011;10358;49.590;11.030;2022-10-10T06:16:28;6.50;;;2.37;;
20397;SDS011;10358;49.590;11.030;2022-10-10T06:18:53;7.97;;;2.20;;
20397;SDS011;10358;49.590;11.030;2022-10-10T06:21:21;9.23;;;2.40;;
20397;SDS011;10358;49.590;11.030;2022-10-10T06:23:47;5.73;;;2.20;;
20397;SDS011;10358;49.590;11.030;2022-10-10T06:26:12;9.03;;;2.50;;
20397;SDS011;10358;49.590;11.030;2022-10-10T06:28:39;6.07;;;2.23;;
20397;SDS011;10358;49.590;11.030;2022-10-10T06:31:05;8.20;;;2.33;;
20397;SDS011;10358;49.590;11.030;2022-10-10T06:33:32;7.63;;;2.47;;
20397;SDS011;10358;49.590;11.030;2022-10-10T06:35:58;4.50;;;2.37;;
20397;SDS011;10358;49.590;11.030;2022-10-10T06:38:29;5.73;;;2.53;;
20397;SDS011;10358;49.590;11.030;2022-10-10T06:40:54;6.43;;;2.97;;
20397;SDS011;10358;49.590;11.030;2022-10-10T06:43:24;9.13;;;3.27;;
20397;SDS011;10358;49.590;11.030;2022-10-10T06:45:50;6.80;;;2.67;;
20397;SDS011;10358;49.590;11.030;2022-10-10T06:48:16;5.37;;;2.40;;
20397;SDS011;10358;49.590;11.030;2022-10-10T06:50:41;7.37;;;3.60;;
20397;SDS011;10358;49.590;11.030;2022-10-10T06:53:07;9.23;;;3.57;;
20397;SDS011;10358;49.590;11.030;2022-10-10T06:55:33;13.63;;;4.33;;
20397;SDS011;10358;49.590;11.030;2022-10-10T06:57:58;14.37;;;5.40;;
20397;SDS011;10358;49.590;11.030;2022-10-10T07:00:24;10.60;;;4.27;;
20397;SDS011;10358;49.590;11.030;2022-10-10T07:02:49;7.97;;;3.07;;
20397;SDS011;10358;49.590;11.030;2022-10-10T07:05:16;4.70;;;2.50;;
20397;SDS011;10358;49.590;11.030;2022-10-10T07:07:42;3.83;;;2.40;;
20397;SDS011;10358;49.590;11.030;2022-10-10T07:10:10;4.20;;;2.10;;
20397;SDS011;10358;49.590;11.030;2022-10-10T07:12:37;7.70;;;2.60;;
20397;SDS011;10358;49.590;11.030;2022-10-10T07:15:04;8.10;;;2.50;;
20397;SDS011;10358;49.590;11.030;2022-10-10T07:17:30;5.30;;;2.40;;
20397;SDS011;10358;49.590;11.030;2022-10-10T07:19:56;7.80;;;2.70;;
20397;SDS011;10358;49.590;11.030;2022-10-10T07:22:22;6.20;;;2.63;;
20397;SDS011;10358;49.590;11.030;2022-10-10T07:24:48;5.27;;;2.60;;
20397;SDS011;10358;49.590;11.030;2022-10-10T07:27:14;4.30;;;2.70;;
20397;SDS011;10358;49.590;11.030;2022-10-10T07:29:40;6.47;;;2.90;;
20397;SDS011;10358;49.590;11.030;2022-10-10T07:32:05;6.37;;;3.00;;
20397;SDS011;10358;49.590;11.030;2022-10-10T07:34:31;10.60;;;3.13;;
20397;SDS011;10358;49.590;11.030;2022-10-10T07:37:00;7.33;;;3.40;;
20397;SDS011;10358;49.590;11.030;2022-10-10T07:39:25;8.17;;;3.17;;
20397;SDS011;10358;49.590;11.030;2022-10-10T07:41:51;7.73;;;2.93;;
20397;SDS011;10358;49.590;11.030;2022-10-10T07:44:17;6.17;;;3.17;;
20397;SDS011;10358;49.590;11.030;2022-10-10T07:46:44;8.50;;;2.90;;
20397;SDS011;10358;49.590;11.030;2022-10-10T07:49:10;7.97;;;2.70;;
20397;SDS011;10358;49.590;11.030;2022-10-10T07:51:36;9.10;;;3.00;;
20397;SDS011;10358;49.590;11.030;2022-10-10T07:54:02;6.87;;;3.20;;
20397;SDS011;10358;49.590;11.030;2022-10-10T07:56:28;8.77;;;3.30;;
20397;SDS011;10358;49.590;11.030;2022-10-10T07:58:54;5.73;;;3.40;;
20397;SDS011;10358;49.590;11.030;2022-10-10T08:01:19;5.87;;;3.03;;
20397;SDS011;10358;49.590;11.030;2022-10-10T08:03:45;7.40;;;2.73;;
20397;SDS011;10358;49.590;11.030;2022-10-10T08:06:13;7.77;;;3.13;;
20397;SDS011;10358;49.590;11.030;2022-10-10T08:08:40;10.57;;;3.07;;
20397;SDS011;10358;49.590;11.030;2022-10-10T08:11:07;7.67;;;3.57;;
20397;SDS011;10358;49.590;11.030;2022-10-10T08:13:34;10.03;;;3.50;;
20397;SDS011;10358;49.590;11.030;2022-10-10T08:16:00;7.30;;;3.50;;
20397;SDS011;10358;49.590;11.030;2022-10-10T08:18:26;9.87;;;3.73;;
20397;SDS011;10358;49.590;11.030;2022-10-10T08:20:58;7.17;;;3.47;;
20397;SDS011;10358;49.590;11.030;2022-10-10T08:23:28;6.27;;;3.47;;
20397;SDS011;10358;49.590;11.030;2022-10-10T08:25:56;6.40;;;3.67;;
20397;SDS011;10358;49.590;11.030;2022-10-10T08:28:23;10.50;;;3.93;;
20397;SDS011;10358;49.590;11.030;2022-10-10T08:30:49;8.03;;;4.30;;
20397;SDS011;10358;49.590;11.030;2022-10-10T08:33:14;8.83;;;4.50;;
20397;SDS011;10358;49.590;11.030;2022-10-10T08:35:40;8.73;;;4.53;;
20397;SDS011;10358;49.590;11.030;2022-10-10T08:38:06;10.17;;;5.10;;
20397;SDS011;10358;49.590;11.030;2022-10-10T08:40:32;9.50;;;4.60;;
20397;SDS011;10358;49.590;11.030;2022-10-10T08:43:04;11.60;;;4.80;;
20397;SDS011;10358;49.590;11.030;2022-10-10T08:45:32;8.43;;;4.67;;
20397;SDS011;10358;49.590;11.030;2022-10-10T08:48:21;7.93;;;4.80;;
20397;SDS011;10358;49.590;11.030;2022-10-10T08:50:48;10.23;;;4.80;;
20397;SDS011;10358;49.590;11.030;2022-10-10T08:53:23;8.70;;;4.40;;
20397;SDS011;10358;49.590;11.030;2022-10-10T08:56:01;8.53;;;4.20;;
20397;SDS011;10358;49.590;11.030;2022-10-10T08:58:35;8.93;;;4.43;;
20397;SDS011;10358;49.590;11.030;2022-10-10T09:01:14;7.17;;;4.20;;
20397;SDS011;10358;49.590;11.030;2022-10-10T09:03:47;6.83;;;4.03;;
20397;SDS011;10358;49.590;11.030;2022-10-10T09:11:44;9.67;;;4.57;;
20397;SDS011;10358;49.590;11.030;2022-10-10T09:22:04;7.27;;;4.37;;
20397;SDS011;10358;49.590;11.030;2022-10-10T09:24:52;10.43;;;4.73;;
20397;SDS011;10358;49.590;11.030;2022-10-10T09:27:27;10.73;;;5.15;;
20397;SDS011;10358;49.590;11.030;2022-10-10T09:32:35;13.87;;;5.53;;
20397;SDS011;10358;49.590;11.030;2022-10-10T09:35:19;11.13;;;5.13;;
20397;SDS011;10358;49.590;11.030;2022-10-10T09:37:48;10.97;;;5.70;;
20397;SDS011;10358;49.590;11.030;2022-10-10T09:42:46;10.68;;;5.57;;
20397;SDS011;10358;49.590;11.030;2022-10-10T09:45:16;10.13;;;5.47;;
20397;SDS011;10358;49.590;11.030;2022-10-10T09:47:45;10.77;;;6.63;;
20397;SDS011;10358;49.590;11.030;2022-10-10T09:50:15;9.80;;;5.72;;
20397;SDS011;10358;49.590;11.030;2022-10-10T09:52:41;10.18;;;5.90;;
20397;SDS011;10358;49.590;11.030;2022-10-10T09:55:17;10.65;;;6.32;;
20397;SDS011;10358;49.590;11.030;2022-10-10T09:57:45;13.02;;;5.40;;
20397;SDS011;10358;49.590;11.030;2022-10-10T10:02:46;16.42;;;5.82;;
20397;SDS011;10358;49.590;11.030;2022-10-10T10:05:25;14.65;;;6.13;;
20397;SDS011;10358;49.590;11.030;2022-10-10T10:07:52;15.20;;;6.07;;
20397;SDS011;10358;49.590;11.030;2022-10-10T10:10:19;14.77;;;5.80;;
20397;SDS011;10358;49.590;11.030;2022-10-10T10:12:47;10.32;;;5.82;;
20397;SDS011;10358;49.590;11.030;2022-10-10T10:15:18;12.43;;;5.45;;
20397;SDS011;10358;49.590;11.030;2022-10-10T10:17:45;9.95;;;5.18;;
20397;SDS011;10358;49.590;11.030;2022-10-10T10:20:30;7.57;;;5.07;;
20397;SDS011;10358;49.590;11.030;2022-10-10T10:22:58;9.38;;;5.70;;
20397;SDS011;10358;49.590;11.030;2022-10-10T10:25:34;11.82;;;5.60;;
20397;SDS011;10358;49.590;11.030;2022-10-10T10:30:39;13.63;;;5.55;;
20397;SDS011;10358;49.590;11.030;2022-10-10T10:33:11;11.75;;;5.97;;
20397;SDS011;10358;49.590;11.030;2022-10-10T10:35:55;7.72;;;5.05;;
20397;SDS011;10358;49.590;11.030;2022-10-10T10:38:48;10.60;;;5.20;;
20397;SDS011;10358;49.590;11.030;2022-10-10T10:49:18;9.55;;;4.90;;
20397;SDS011;10358;49.590;11.030;2022-10-10T11:00:58;8.88;;;5.00;;
20397;SDS011;10358;49.590;11.030;2022-10-10T11:09:12;12.38;;;5.13;;
20397;SDS011;10358;49.590;11.030;2022-10-10T11:14:55;10.60;;;4.70;;
20397;SDS011;10358;49.590;11.030;2022-10-10T11:17:38;8.38;;;4.80;;
20397;SDS011;10358;49.590;11.030;2022-10-10T11:20:15;12.95;;;4.82;;
20397;SDS011;10358;49.590;11.030;2022-10-10T11:22:51;8.63;;;4.60;;
20397;SDS011;10358;49.590;11.030;2022-10-10T11:25:44;8.63;;;5.15;;
20397;SDS011;10358;49.590;11.030;2022-10-10T11:28:19;10.13;;;4.30;;
20397;SDS011;10358;49.590;11.030;2022-10-10T11:30:53;10.55;;;4.97;;
20397;SDS011;10358;49.590;11.030;2022-10-10T11:33:28;13.23;;;4.85;;
20397;SDS011;10358;49.590;11.030;2022-10-10T11:35:58;8.85;;;4.40;;
20397;SDS011;10358;49.590;11.030;2022-10-10T11:38:29;10.13;;;4.30;;
20397;SDS011;10358;49.590;11.030;2022-10-10T11:43:50;13.40;;;4.70;;
20397;SDS011;10358;49.590;11.030;2022-10-10T11:46:28;10.80;;;4.70;;
20397;SDS011;10358;49.590;11.030;2022-10-10T11:49:29;7.45;;;4.50;;
20397;SDS011;10358;49.590;11.030;2022-10-10T11:52:20;9.82;;;4.95;;
20397;SDS011;10358;49.590;11.030;2022-10-10T11:58:25;8.98;;;4.30;;
20397;SDS011;10358;49.590;11.030;2022-10-10T12:01:05;8.90;;;3.90;;
20397;SDS011;10358;49.590;11.030;2022-10-10T12:03:51;11.73;;;4.40;;
20397;SDS011;10358;49.590;11.030;2022-10-10T12:06:23;6.60;;;3.97;;
20397;SDS011;10358;49.590;11.030;2022-10-10T12:09:06;10.68;;;4.40;;
20397;SDS011;10358;49.590;11.030;2022-10-10T12:11:36;7.30;;;4.05;;
20397;SDS011;10358;49.590;11.030;2022-10-10T12:14:07;7.93;;;4.22;;
20397;SDS011;10358;49.590;11.030;2022-10-10T12:16:37;7.68;;;3.95;;
20397;SDS011;10358;49.590;11.030;2022-10-10T12:19:04;10.35;;;3.92;;
20397;SDS011;10358;49.590;11.030;2022-10-10T12:24:30;10.45;;;3.80;;
20397;SDS011;10358;49.590;11.030;2022-10-10T12:37:31;8.60;;;3.97;;
20397;SDS011;10358;49.590;11.030;2022-10-10T12:40:15;9.18;;;4.50;;
20397;SDS011;10358;49.590;11.030;2022-10-10T12:50:41;9.45;;;3.83;;
20397;SDS011;10358;49.590;11.030;2022-10-10T12:53:17;9.13;;;4.20;;
20397;SDS011;10358;49.590;11.030;2022-10-10T12:55:45;7.57;;;4.10;;
20397;SDS011;10358;49.590;11.030;2022-10-10T12:58:24;15.88;;;4.25;;
20397;SDS011;10358;49.590;11.030;2022-10-10T13:00:54;9.70;;;4.10;;
20397;SDS011;10358;49.590;11.030;2022-10-10T13:03:31;9.40;;;4.22;;
20397;SDS011;10358;49.590;11.030;2022-10-10T13:06:06;8.48;;;3.95;;
20397;SDS011;10358;49.590;11.030;2022-10-10T13:08:41;9.88;;;4.15;;
20397;SDS011;10358;49.590;11.030;2022-10-10T13:11:08;9.82;;;4.35;;
20397;SDS011;10358;49.590;11.030;2022-10-10T13:13:36;9.50;;;4.78;;
20397;SDS011;10358;49.590;11.030;2022-10-10T13:16:07;9.65;;;4.57;;
20397;SDS011;10358;49.590;11.030;2022-10-10T13:18:37;14.52;;;5.13;;
20397;SDS011;10358;49.590;11.030;2022-10-10T13:21:05;7.72;;;4.03;;
20397;SDS011;10358;49.590;11.030;2022-10-10T13:23:34;10.48;;;4.00;;
20397;SDS011;10358;49.590;11.030;2022-10-10T13:26:00;9.75;;;4.45;;
20397;SDS011;10358;49.590;11.030;2022-10-10T13:28:27;13.18;;;4.88;;
20397;SDS011;10358;49.590;11.030;2022-10-10T13:30:53;13.05;;;4.38;;
20397;SDS011;10358;49.590;11.030;2022-10-10T13:33:20;8.68;;;4.63;;
20397;SDS011;10358;49.590;11.030;2022-10-10T13:35:47;8.05;;;4.00;;
20397;SDS011;10358;49.590;11.030;2022-10-10T13:38:15;8.02;;;4.20;;
20397;SDS011;10358;49.590;11.030;2022-10-10T13:40:43;8.27;;;4.53;;
20397;SDS011;10358;49.590;11.030;2022-10-10T13:43:13;6.05;;;4.00;;
20397;SDS011;10358;49.590;11.030;2022-10-10T13:45:49;10.32;;;4.78;;
20397;SDS011;10358;49.590;11.030;2022-10-10T13:51:03;10.32;;;5.10;;
20397;SDS011;10358;49.590;11.030;2022-10-10T14:01:29;9.10;;;4.88;;
20397;SDS011;10358;49.590;11.030;2022-10-10T14:04:18;11.73;;;4.93;;
20397;SDS011;10358;49.590;11.030;2022-10-10T14:06:49;8.68;;;4.18;;
20397;SDS011;10358;49.590;11.030;2022-10-10T14:09:31;6.75;;;4.00;;
20397;SDS011;10358;49.590;11.030;2022-10-10T14:12:04;10.43;;;4.50;;
20397;SDS011;10358;49.590;11.030;2022-10-10T14:17:02;14.77;;;4.72;;
20397;SDS011;10358;49.590;11.030;2022-10-10T14:19:29;8.95;;;3.85;;
20397;SDS011;10358;49.590;11.030;2022-10-10T14:21:55;7.03;;;4.13;;
20397;SDS011;10358;49.590;11.030;2022-10-10T14:24:22;14.05;;;4.60;;
20397;SDS011;10358;49.590;11.030;2022-10-10T14:26:48;11.85;;;4.28;;
20397;SDS011;10358;49.590;11.030;2022-10-10T14:29:14;9.50;;;4.13;;
20397;SDS011;10358;49.590;11.030;2022-10-10T14:31:41;9.15;;;4.45;;
20397;SDS011;10358;49.590;11.030;2022-10-10T14:34:08;11.32;;;4.57;;
20397;SDS011;10358;49.590;11.030;2022-10-10T14:36:34;7.85;;;3.92;;
20397;SDS011;10358;49.590;11.030;2022-10-10T14:39:04;9.23;;;3.90;;
20397;SDS011;10358;49.590;11.030;2022-10-10T14:41:30;9.18;;;4.00;;
20397;SDS011;10358;49.590;11.030;2022-10-10T14:43:55;11.40;;;4.20;;
20397;SDS011;10358;49.590;11.030;2022-10-10T14:46:21;10.82;;;3.85;;
20397;SDS011;10358;49.590;11.030;2022-10-10T14:48:46;11.70;;;3.80;;
20397;SDS011;10358;49.590;11.030;2022-10-10T14:51:12;11.15;;;4.22;;
20397;SDS011;10358;49.590;11.030;2022-10-10T14:53:38;10.60;;;4.10;;
20397;SDS011;10358;49.590;11.030;2022-10-10T14:56:04;9.85;;;3.38;;
20397;SDS011;10358;49.590;11.030;2022-10-10T14:58:30;10.38;;;4.03;;
20397;SDS011;10358;49.590;11.030;2022-10-10T15:00:55;11.25;;;3.90;;
20397;SDS011;10358;49.590;11.030;2022-10-10T15:03:21;6.65;;;3.80;;
20397;SDS011;10358;49.590;11.030;2022-10-10T15:05:47;11.05;;;4.20;;
20397;SDS011;10358;49.590;11.030;2022-10-10T15:08:14;11.25;;;4.15;;
20397;SDS011;10358;49.590;11.030;2022-10-10T15:10:40;14.38;;;3.78;;
20397;SDS011;10358;49.590;11.030;2022-10-10T15:13:06;8.10;;;3.85;;
20397;SDS011;10358;49.590;11.030;2022-10-10T15:15:33;9.52;;;3.72;;
20397;SDS011;10358;49.590;11.030;2022-10-10T15:17:59;7.57;;;3.65;;
20397;SDS011;10358;49.590;11.030;2022-10-10T15:20:25;9.45;;;3.88;;
20397;SDS011;10358;49.590;11.030;2022-10-10T15:22:58;9.05;;;3.72;;
20397;SDS011;10358;49.590;11.030;2022-10-10T15:25:26;6.65;;;3.72;;
20397;SDS011;10358;49.590;11.030;2022-10-10T15:27:52;6.32;;;3.35;;
20397;SDS011;10358;49.590;11.030;2022-10-10T15:30:18;11.02;;;4.00;;
20397;SDS011;10358;49.590;11.030;2022-10-10T15:32:44;13.25;;;4.18;;
20397;SDS011;10358;49.590;11.030;2022-10-10T15:35:14;9.25;;;4.00;;
20397;SDS011;10358;49.590;11.030;2022-10-10T15:37:44;13.18;;;4.10;;
20397;SDS011;10358;49.590;11.030;2022-10-10T15:40:11;13.57;;;4.95;;
20397;SDS011;10358;49.590;11.030;2022-10-10T15:42:39;13.50;;;4.28;;
20397;SDS011;10358;49.590;11.030;2022-10-10T15:45:04;8.65;;;4.00;;
20397;SDS011;10358;49.590;11.030;2022-10-10T15:47:30;8.48;;;3.88;;
20397;SDS011;10358;49.590;11.030;2022-10-10T15:49:56;12.23;;;3.55;;
20397;SDS011;10358;49.590;11.030;2022-10-10T15:52:21;9.73;;;3.40;;
20397;SDS011;10358;49.590;11.030;2022-10-10T15:54:48;10.10;;;4.10;;
20397;SDS011;10358;49.590;11.030;2022-10-10T15:57:14;10.80;;;3.80;;
20397;SDS011;10358;49.590;11.030;2022-10-10T15:59:41;13.77;;;4.18;;
20397;SDS011;10358;49.590;11.030;2022-10-10T16:02:08;10.52;;;3.95;;
20397;SDS011;10358;49.590;11.030;2022-10-10T16:04:34;15.25;;;3.80;;
20397;SDS011;10358;49.590;11.030;2022-10-10T16:07:00;6.25;;;3.47;;
20397;SDS011;10358;49.590;11.030;2022-10-10T16:09:26;10.15;;;4.00;;
20397;SDS011;10358;49.590;11.030;2022-10-10T16:11:51;13.13;;;4.78;;
20397;SDS011;10358;49.590;11.030;2022-10-10T16:14:17;10.65;;;4.20;;
20397;SDS011;10358;49.590;11.030;2022-10-10T16:16:42;9.35;;;4.28;;
20397;SDS011;10358;49.590;11.030;2022-10-10T16:19:08;12.32;;;3.75;;
20397;SDS011;10358;49.590;11.030;2022-10-10T16:21:34;12.55;;;4.93;;
20397;SDS011;10358;49.590;11.030;2022-10-10T16:23:59;8.85;;;4.10;;
20397;SDS011;10358;49.590;11.030;2022-10-10T16:26:26;8.05;;;4.13;;
20397;SDS011;10358;49.590;11.030;2022-10-10T16:28:55;11.13;;;4.53;;
20397;SDS011;10358;49.590;11.030;2022-10-10T16:31:21;12.57;;;4.65;;
20397;SDS011;10358;49.590;11.030;2022-10-10T16:33:49;10.13;;;4.22;;